Time;durP1;ratioP1;P1;durP2;ratioP2;P2;SDS_P1;SDS_P2;PMS_P1;PMS_P2;Temp;Humidity;BMP_temperature;BMP_pressure;BME280_temperature;BME280_humidity;BME280_pressure;Samples;Min_cycle;Max_cycle;Signal;HPM_P1;HPM_P2
2022/03/05 00:03:10;;;;;;;5.27;3.07;;;;;;;;;;20638128;28;20207;-66
2022/03/05 00:13:12;;;;;;;4.90;3.17;;;;;;;;;;20649626;28;20243;-66
2022/03/05 00:23:17;;;;;;;3.93;2.60;;;3.50;99.90;;;;;;20632423;28;20641;-66
2022/03/05 00:33:21;;;;;;;4.33;2.60;;;;;;;;;;20648196;28;20286;-67
2022/03/05 00:43:23;;;;;;;4.47;2.73;;;;;;;;;;20631459;28;20216;-67
2022/03/05 00:53:24;;;;;;;5.60;2.70;;;;;;;;;;20614845;28;20710;-66
2022/03/05 01:03:26;;;;;;;5.30;2.80;;;;;;;;;;20630473;28;20208;-66
2022/03/05 01:13:28;;;;;;;4.33;2.13;;;3.50;99.90;;;;;;20629075;28;20231;-66
2022/03/05 01:23:30;;;;;;;4.47;2.93;;;;;;;;;;20626782;28;20224;-67
2022/03/05 01:33:32;;;;;;;3.07;2.13;;;;;;;;;;20629235;28;20290;-67
2022/03/05 01:43:33;;;;;;;3.17;2.20;;;;;;;;;;20785876;23;20748;-71
2022/03/05 01:53:35;;;;;;;3.97;2.30;;;;;;;;;;20836583;28;20276;-71
2022/03/05 02:03:37;;;;;;;3.53;2.43;;;;;;;;;;20837192;28;20206;-71
2022/03/05 02:13:41;;;;;;;4.53;2.83;;;;;;;;;;20819387;28;20214;-71
2022/03/05 02:23:43;;;;;;;4.37;2.50;;;;;;;;;;20826330;28;20210;-71
2022/03/05 02:33:45;;;;;;;3.03;1.97;;;;;;;;;;20834615;28;20717;-71
2022/03/05 02:43:46;;;;;;;2.37;1.83;;;2.40;99.90;;;;;;20833921;28;20635;-72
2022/03/05 02:53:48;;;;;;;3.27;1.90;;;;;;;;;;20832924;28;20218;-71
2022/03/05 03:03:50;;;;;;;4.77;2.30;;;2.30;99.90;;;;;;20833761;28;20202;-71
2022/03/05 03:13:52;;;;;;;3.20;2.37;;;;;;;;;;20832920;28;20214;-71
2022/03/05 03:23:54;;;;;;;3.17;2.23;;;;;;;;;;20833174;28;20601;-71
2022/03/05 03:33:56;;;;;;;2.67;2.00;;;;;;;;;;20831590;28;20219;-71
2022/03/05 03:43:57;;;;;;;2.40;1.40;;;;;;;;;;20829244;28;20268;-71
2022/03/05 03:53:59;;;;;;;2.33;1.27;;;;;;;;;;20844223;28;20304;-71
2022/03/05 04:04:01;;;;;;;2.80;1.70;;;;;;;;;;20828848;28;20698;-71
2022/03/05 04:14:03;;;;;;;2.87;1.80;;;;;;;;;;20826699;28;20245;-71
2022/03/05 04:24:04;;;;;;;2.70;1.93;;;4.20;99.90;;;;;;20824660;28;20636;-71
2022/03/05 04:34:06;;;;;;;2.93;2.23;;;;;;;;;;20842153;28;20226;-70
2022/03/05 04:44:08;;;;;;;4.23;2.47;;;;;;;;;;20827911;28;20214;-71
2022/03/05 04:54:10;;;;;;;3.33;2.50;;;;;;;;;;20825019;28;20231;-71
2022/03/05 05:04:12;;;;;;;1.80;1.20;;;;;;;;;;20825340;28;20241;-72
2022/03/05 05:14:13;;;;;;;2.03;1.60;;;;;;;;;;20823474;28;20447;-70
2022/03/05 05:24:16;;;;;;;3.17;1.70;;;;;;;;;;20822496;28;20747;-70
2022/03/05 05:34:17;;;;;;;1.97;1.30;;;1.40;99.90;;;;;;20814216;28;20222;-71
2022/03/05 05:44:19;;;;;;;4.70;2.83;;;;;;;;;;20767265;28;20249;-72
2022/03/05 05:54:22;;;;;;;5.97;1.53;;;;;;;;;;20749420;28;20209;-71
2022/03/05 06:21:53;;;;;;;3.57;1.93;;;;;;;;;;20964953;28;21106;-65
2022/03/05 06:31:58;;;;;;;2.73;1.70;;;;;;;;;;20862445;28;20280;-65
2022/03/05 06:42:00;;;;;;;1.63;1.30;;;;;;;;;;20869109;28;20641;-65
2022/03/05 06:52:02;;;;;;;2.57;1.80;;;;;;;;;;20852668;28;20597;-65
2022/03/05 07:02:04;;;;;;;3.23;2.60;;;;;;;;;;20849768;28;20244;-64
2022/03/05 07:12:06;;;;;;;3.97;2.20;;;;;;;;;;20875366;28;20189;-65
2022/03/05 07:22:08;;;;;;;2.60;1.80;;;;;;;;;;20870882;28;20190;-64
2022/03/05 07:32:10;;;;;;;3.77;1.87;;;2.00;99.90;;;;;;20831674;28;20248;-65
2022/03/05 07:42:13;;;;;;;3.30;2.47;;;;;;;;;;20829018;28;20238;-64
2022/03/05 07:52:15;;;;;;;4.60;3.23;;;;;;;;;;20813193;28;20194;-65
2022/03/05 08:02:16;;;;;;;4.10;2.60;;;;;;;;;;20775201;23;20239;-86
2022/03/05 08:12:18;;;;;;;7.13;4.57;;;;;;;;;;20769681;28;20246;-85
2022/03/05 08:22:20;;;;;;;3.93;2.93;;;;;;;;;;20818809;28;20230;-81
2022/03/05 08:32:22;;;;;;;6.00;2.63;;;;;;;;;;20832291;28;20644;-82
2022/03/05 08:42:24;;;;;;;4.43;2.70;;;;;;;;;;20781802;28;20257;-82
2022/03/05 08:52:28;;;;;;;2.47;1.80;;;;;;;;;;20798468;28;20589;-82
2022/03/05 09:02:30;;;;;;;3.07;2.10;;;;;;;;;;20814526;28;20223;-82
2022/03/05 09:12:32;;;;;;;3.37;2.20;;;;;;;;;;20763781;28;20227;-82
2022/03/05 09:22:34;;;;;;;3.93;2.97;;;;;;;;;;20649913;28;20216;-82
2022/03/05 09:32:36;;;;;;;3.37;2.30;;;;;;;;;;20693046;28;20232;-82
2022/03/05 09:42:42;;;;;;;3.90;2.70;;;;;;;;;;20650660;28;20231;-82
2022/03/05 09:52:43;;;;;;;4.73;2.60;;;;;;;;;;20678017;28;20208;-82
2022/03/05 10:02:46;;;;;;;4.03;2.30;;;6.60;99.90;;;;;;20712334;28;20227;-82
2022/03/05 10:12:49;;;;;;;5.03;3.23;;;;;;;;;;20743901;28;20223;-82
2022/03/05 10:23:03;;;;;;;4.20;2.57;;;;;;;;;;20743176;28;20258;-82
2022/03/05 10:33:04;;;;;;;2.60;1.93;;;;;;;;;;20727347;28;20269;-81
2022/03/05 10:43:07;;;;;;;3.20;2.43;;;7.50;99.90;;;;;;20726468;28;20227;-82
2022/03/05 10:53:09;;;;;;;3.77;2.30;;;;;;;;;;20710236;28;20689;-81
2022/03/05 11:03:11;;;;;;;6.27;2.47;;;;;;;;;;20792231;28;20280;-81
2022/03/05 11:13:13;;;;;;;3.83;2.30;;;;;;;;;;20823632;28;20676;-81
2022/03/05 11:23:17;;;;;;;2.47;1.37;;;;;;;;;;20846865;28;20253;-82
2022/03/05 11:33:33;;;;;;;1.97;1.30;;;7.80;99.90;;;;;;20827317;28;20219;-82
2022/03/05 11:43:46;;;;;;;2.27;1.30;;;;;;;;;;20790669;28;20648;-81
2022/03/05 11:54:02;;;;;;;2.30;0.97;;;;;;;;;;20774101;28;20284;-81
2022/03/05 12:04:23;;;;;;;1.77;1.07;;;;;;;;;;20836643;28;20226;-81
2022/03/05 12:14:24;;;;;;;1.23;0.80;;;;;;;;;;20815015;28;20219;-80
2022/03/05 12:24:27;;;;;;;1.13;0.77;;;;;;;;;;20780220;28;20239;-81
2022/03/05 12:34:35;;;;;;;2.17;1.20;;;;;;;;;;20734406;28;20215;-81
2022/03/05 12:44:38;;;;;;;1.50;0.90;;;8.50;99.90;;;;;;20749930;28;20238;-82
2022/03/05 12:54:44;;;;;;;1.77;1.00;;;9.30;99.90;;;;;;20748986;28;20219;-83
2022/03/05 13:04:50;;;;;;;2.77;1.40;;;;;;;;;;20714790;28;20274;-81
2022/03/05 13:14:52;;;;;;;3.07;1.33;;;;;;;;;;20734385;28;20222;-81
2022/03/05 13:24:54;;;;;;;1.63;1.20;;;;;;;;;;20717895;28;20809;-80
2022/03/05 13:35:06;;;;;;;2.80;1.00;;;;;;;;;;20722528;28;20748;-80
2022/03/05 13:45:09;;;;;;;2.20;1.20;;;;;;;;;;20723703;28;20230;-81
2022/03/05 13:55:17;;;;;;;3.10;2.10;;;9.30;99.90;;;;;;20748182;28;20288;-81
2022/03/05 14:05:23;;;;;;;2.57;1.50;;;;;;;;;;20723220;28;20211;-82
2022/03/05 14:15:26;;;;;;;2.40;1.60;;;;;;;;;;20743294;28;20218;-81
2022/03/05 14:25:31;;;;;;;2.67;1.50;;;9.00;99.90;;;;;;20732323;28;20718;-82
2022/03/05 14:35:33;;;;;;;1.27;1.07;;;;;;;;;;20722343;28;20211;-80
2022/03/05 14:45:37;;;;;;;2.63;1.60;;;8.60;99.90;;;;;;20759756;28;20226;-82
2022/03/05 14:55:39;;;;;;;2.30;1.20;;;;;;;;;;20743599;28;20242;-81
2022/03/05 15:05:41;;;;;;;1.93;1.47;;;;;;;;;;20754833;28;20226;-81
2022/03/05 15:15:43;;;;;;;3.03;1.60;;;;;;;;;;20722013;28;20278;-82
2022/03/05 15:25:45;;;;;;;4.27;1.40;;;;;;;;;;20722823;28;20234;-83
2022/03/05 15:35:47;;;;;;;1.97;0.97;;;;;;;;;;20735533;28;20219;-83
2022/03/05 16:00:22;;;;;;;2.17;0.90;;;;;;;;;;20965464;27;20572;-67
2022/03/05 16:10:24;;;;;;;1.73;1.07;;;;;;;;;;20896987;27;20205;-66
2022/03/05 16:20:26;;;;;;;1.20;0.70;;;;;;;;;;21074366;27;20287;-66
2022/03/05 16:30:28;;;;;;;1.10;0.70;;;;;;;;;;21246072;27;20206;-65
2022/03/05 16:40:30;;;;;;;2.00;1.13;;;;;;;;;;21262384;27;20226;-65
2022/03/05 16:50:32;;;;;;;1.27;0.80;;;;;;;;;;21275354;27;20198;-66
2022/03/05 17:00:34;;;;;;;3.00;1.70;;;;;;;;;;21230141;27;20206;-66
2022/03/05 17:10:36;;;;;;;3.37;1.27;;;;;;;;;;21213420;27;20195;-67
2022/03/05 17:20:37;;;;;;;4.90;1.77;;;;;;;;;;21172742;27;20195;-66
2022/03/05 17:30:39;;;;;;;3.27;1.53;;;;;;;;;;20926447;27;20756;-67
2022/03/05 17:40:41;;;;;;;2.53;1.43;;;;;;;;;;20765598;27;20207;-67
2022/03/05 17:50:43;;;;;;;2.37;1.27;;;;;;;;;;20830364;27;20230;-66
2022/03/05 18:00:45;;;;;;;3.93;1.63;;;;;;;;;;20813887;27;20227;-68
2022/03/05 18:10:47;;;;;;;1.90;1.40;;;;;;;;;;20994801;27;20267;-66
2022/03/05 18:20:49;;;;;;;1.50;0.90;;;;;;;;;;21146959;27;20608;-66
2022/03/05 18:30:50;;;;;;;4.07;1.40;;;;;;;;;;20836504;27;20210;-67
2022/03/05 18:40:52;;;;;;;4.87;2.47;;;;;;;;;;20949502;27;20218;-67
2022/03/05 18:50:55;;;;;;;2.47;1.67;;;;;;;;;;20822555;27;20283;-67
2022/03/05 19:01:01;;;;;;;2.57;1.30;;;;;;;;;;20825430;28;20624;-64
2022/03/05 19:11:04;;;;;;;2.93;1.70;;;6.10;99.90;;;;;;20807956;28;20223;-67
2022/03/05 19:21:05;;;;;;;2.43;1.23;;;;;;;;;;20935423;27;20211;-67
2022/03/05 19:31:08;;;;;;;1.83;1.07;;;;;;;;;;21126530;22;20233;-74
2022/03/05 19:41:10;;;;;;;3.67;2.10;;;;;;;;;;20956034;28;20617;-72
2022/03/05 19:51:12;;;;;;;2.30;1.40;;;;;;;;;;20943554;28;20476;-74
2022/03/05 20:01:13;;;;;;;3.30;2.23;;;;;;;;;;20958900;28;20313;-75
2022/03/05 20:11:16;;;;;;;2.57;1.47;;;;;;;;;;20959013;28;20270;-75
2022/03/05 20:21:17;;;;;;;2.83;1.83;;;;;;;;;;20958951;28;20244;-75
2022/03/05 20:31:20;;;;;;;3.27;1.63;;;;;;;;;;20960875;28;20221;-74
2022/03/05 20:41:22;;;;;;;3.47;2.13;;;;;;;;;;20967625;28;20217;-73
2022/03/05 20:51:24;;;;;;;3.60;2.30;;;;;;;;;;20976351;28;20561;-74
2022/03/05 21:01:25;;;;;;;1.97;1.43;;;;;;;;;;20974951;28;20700;-73
2022/03/05 21:11:27;;;;;;;2.53;1.90;;;;;;;;;;20977539;28;20664;-73
2022/03/05 21:21:29;;;;;;;3.30;2.00;;;;;;;;;;20982248;28;20578;-73
2022/03/05 21:31:30;;;;;;;2.23;1.83;;;;;;;;;;20977248;28;20225;-73
2022/03/05 21:41:32;;;;;;;2.63;1.63;;;;;;;;;;20954103;28;20633;-73
2022/03/05 21:51:35;;;;;;;1.50;1.20;;;;;;;;;;20979314;28;20232;-73
2022/03/05 22:01:37;;;;;;;4.63;1.60;;;;;;;;;;20980280;28;20407;-73
2022/03/05 22:11:39;;;;;;;1.80;1.40;;;;;;;;;;20975481;28;20580;-73
2022/03/05 22:21:41;;;;;;;2.10;1.57;;;;;;;;;;20957169;28;20278;-73
2022/03/05 22:31:43;;;;;;;2.97;1.93;;;;;;;;;;20984463;28;20225;-74
2022/03/05 22:41:44;;;;;;;2.57;1.97;;;;;;;;;;20989919;28;20213;-74
2022/03/05 22:51:46;;;;;;;2.17;1.80;;;;;;;;;;20972074;28;20266;-73
2022/03/05 23:01:48;;;;;;;2.47;1.67;;;;;;;;;;20989522;28;20777;-73
2022/03/05 23:11:50;;;;;;;1.87;1.37;;;;;;;;;;20990770;28;20228;-74
2022/03/05 23:21:51;;;;;;;1.67;1.00;;;3.40;99.90;;;;;;20986547;28;20237;-74
2022/03/05 23:31:53;;;;;;;3.03;1.67;;;;;;;;;;20986661;28;20217;-73
2022/03/05 23:41:55;;;;;;;1.73;1.40;;;;;;;;;;20983756;28;20225;-73
2022/03/05 23:51:57;;;;;;;2.37;1.67;;;;;;;;;;20985641;28;20631;-74
